Time;durP1;ratioP1;P1;durP2;ratioP2;P2;SDS_P1;SDS_P2;PMS_P1;PMS_P2;Temp;Humidity;BMP_temperature;BMP_pressure;BME280_temperature;BME280_humidity;BME280_pressure;Samples;Min_cycle;Max_cycle;Signal;HPM_P1;HPM_P2
2024/02/21 00:02:07;;;;;;;1.85;0.90;;;21.50;44.80;;;;;;10359570;28;20053;-58
2024/02/21 00:07:08;;;;;;;1.75;1.00;;;21.40;44.80;;;;;;10361451;28;20041;-58
2024/02/21 00:12:13;;;;;;;2.08;1.10;;;21.40;44.80;;;;;;10359622;28;20038;-59
2024/02/21 00:17:15;;;;;;;1.63;1.10;;;21.40;45.00;;;;;;10352745;28;20069;-58
2024/02/21 00:22:16;;;;;;;2.03;1.02;;;21.30;45.00;;;;;;10354290;28;20068;-58
2024/02/21 00:27:19;;;;;;;2.47;1.00;;;21.30;45.00;;;;;;10361808;28;20042;-58
2024/02/21 00:32:21;;;;;;;2.78;1.23;;;21.20;45.30;;;;;;10359643;28;20046;-59
2024/02/21 00:37:24;;;;;;;2.33;1.13;;;21.30;45.10;;;;;;10359485;28;20536;-58
2024/02/21 00:42:27;;;;;;;3.25;1.20;;;21.20;45.00;;;;;;10364649;28;20049;-59
2024/02/21 00:47:28;;;;;;;2.20;1.20;;;21.20;45.00;;;;;;10361231;28;20068;-57
2024/02/21 00:52:30;;;;;;;3.92;1.38;;;21.10;45.30;;;;;;10354295;28;20129;-58
2024/02/21 00:57:33;;;;;;;1.45;1.05;;;21.00;45.40;;;;;;10355546;28;20056;-59
2024/02/21 01:02:34;;;;;;;2.38;1.20;;;21.00;45.40;;;;;;10357561;28;20063;-59
2024/02/21 01:07:36;;;;;;;2.50;1.02;;;21.00;45.40;;;;;;10354833;28;20129;-58
2024/02/21 01:12:39;;;;;;;2.00;1.27;;;20.90;45.40;;;;;;10355493;28;20462;-57
2024/02/21 01:17:42;;;;;;;1.70;1.30;;;20.90;45.40;;;;;;10359020;28;20156;-58
2024/02/21 01:22:43;;;;;;;2.17;1.20;;;21.00;45.30;;;;;;10355186;28;20045;-58
2024/02/21 01:27:46;;;;;;;2.30;1.10;;;21.00;45.20;;;;;;10356749;28;20048;-58
2024/02/21 01:32:48;;;;;;;2.70;1.20;;;20.90;45.30;;;;;;10349956;28;20038;-58
2024/02/21 01:37:51;;;;;;;2.35;1.23;;;20.90;45.30;;;;;;10355803;28;20384;-57
2024/02/21 01:42:56;;;;;;;2.08;1.20;;;20.80;45.40;;;;;;10361168;28;20038;-57
2024/02/21 01:47:57;;;;;;;2.30;1.20;;;20.80;45.40;;;;;;10349810;28;20044;-57
2024/02/21 01:52:59;;;;;;;2.40;1.33;;;20.80;45.50;;;;;;10356920;28;20056;-58
2024/02/21 01:58:02;;;;;;;2.65;1.25;;;20.80;45.40;;;;;;10359051;28;20083;-59
2024/02/21 02:03:04;;;;;;;2.60;1.23;;;20.70;45.40;;;;;;10358279;28;20045;-59
2024/02/21 02:08:07;;;;;;;2.72;1.40;;;20.70;45.60;;;;;;10351771;28;20052;-58
2024/02/21 02:13:10;;;;;;;3.05;1.30;;;20.70;45.40;;;;;;10349182;28;20635;-57
2024/02/21 02:18:11;;;;;;;2.25;1.10;;;20.70;45.50;;;;;;10351332;28;20046;-59
2024/02/21 02:23:14;;;;;;;2.40;1.10;;;20.60;45.60;;;;;;10352894;28;20077;-57
2024/02/21 02:28:17;;;;;;;2.05;1.00;;;20.60;45.70;;;;;;10357347;28;20046;-57
2024/02/21 02:33:19;;;;;;;1.35;1.05;;;20.70;45.50;;;;;;10354681;28;20052;-59
2024/02/21 02:38:21;;;;;;;2.22;1.20;;;20.70;45.60;;;;;;10351247;28;20038;-60
2024/02/21 02:43:23;;;;;;;2.50;1.20;;;20.60;45.70;;;;;;10356412;28;20042;-58
2024/02/21 02:48:25;;;;;;;2.08;1.10;;;20.60;45.70;;;;;;10347895;28;20046;-58
2024/02/21 02:53:27;;;;;;;2.13;1.20;;;20.60;45.50;;;;;;10361368;28;20038;-58
2024/02/21 02:58:30;;;;;;;1.80;1.30;;;20.60;45.50;;;;;;10352032;28;20116;-59
2024/02/21 03:03:31;;;;;;;1.60;1.00;;;20.50;45.70;;;;;;10348755;28;20439;-58
2024/02/21 03:08:34;;;;;;;3.53;1.35;;;20.50;45.50;;;;;;10361287;28;20072;-60
2024/02/21 03:13:37;;;;;;;2.15;1.25;;;20.40;45.80;;;;;;10362060;28;20070;-56
2024/02/21 03:18:39;;;;;;;2.47;1.42;;;20.50;45.60;;;;;;10359421;28;20081;-55
2024/02/21 03:23:40;;;;;;;2.40;1.30;;;20.50;45.60;;;;;;10353804;28;20133;-55
2024/02/21 03:28:45;;;;;;;1.58;1.15;;;20.30;45.80;;;;;;10350142;28;20046;-58
2024/02/21 03:33:46;;;;;;;2.15;1.30;;;20.30;45.90;;;;;;10344996;28;20130;-56
2024/02/21 03:38:48;;;;;;;2.03;1.30;;;20.30;46.00;;;;;;10350756;28;20041;-56
2024/02/21 03:43:51;;;;;;;2.35;1.50;;;20.30;45.80;;;;;;10359280;28;20141;-53
2024/02/21 03:48:53;;;;;;;1.77;1.40;;;20.30;45.90;;;;;;10360864;28;20046;-53
2024/02/21 03:53:54;;;;;;;2.45;1.50;;;20.30;45.90;;;;;;10359139;28;20041;-57
2024/02/21 03:58:58;;;;;;;3.40;1.70;;;20.30;45.50;;;;;;10357665;28;20073;-55
2024/02/21 04:03:59;;;;;;;2.75;1.40;;;20.30;45.70;;;;;;10362759;28;20065;-54
2024/02/21 04:09:01;;;;;;;2.20;1.23;;;20.20;45.80;;;;;;10362225;28;20061;-51
2024/02/21 04:14:04;;;;;;;2.17;1.40;;;20.00;47.30;;;;;;10355655;28;20058;-51
2024/02/21 04:19:05;;;;;;;2.25;1.10;;;20.50;46.50;;;;;;10352431;28;20133;-54
2024/02/21 04:24:07;;;;;;;1.85;1.30;;;20.70;46.40;;;;;;10360074;28;20121;-53
2024/02/21 04:29:10;;;;;;;1.67;1.25;;;20.80;46.20;;;;;;10360475;28;20415;-59
2024/02/21 04:34:12;;;;;;;1.63;1.20;;;20.90;45.70;;;;;;10357157;28;20047;-55
2024/02/21 04:39:13;;;;;;;2.35;1.40;;;21.00;45.60;;;;;;10350777;28;20049;-58
2024/02/21 04:44:21;;;;;;;2.10;1.17;;;21.10;45.50;;;;;;10349459;28;20054;-56
2024/02/21 04:49:23;;;;;;;1.52;1.10;;;21.00;45.70;;;;;;10343583;28;20487;-54
2024/02/21 04:54:24;;;;;;;1.88;1.13;;;21.10;45.60;;;;;;10347250;28;20046;-57
2024/02/21 04:59:27;;;;;;;2.17;1.35;;;21.20;45.50;;;;;;10357921;28;20046;-56
2024/02/21 05:04:29;;;;;;;1.40;1.00;;;21.20;45.60;;;;;;10361172;28;20410;-58
2024/02/21 05:09:30;;;;;;;1.58;1.10;;;21.20;45.60;;;;;;10356001;28;20042;-55
2024/02/21 05:14:33;;;;;;;2.75;1.20;;;21.30;45.40;;;;;;10363489;28;20049;-56
2024/02/21 05:19:35;;;;;;;2.00;1.08;;;21.30;45.40;;;;;;10363898;28;20045;-58
2024/02/21 05:24:37;;;;;;;1.58;1.00;;;21.30;45.60;;;;;;10360398;28;20587;-56
2024/02/21 05:29:40;;;;;;;2.10;0.90;;;21.30;45.80;;;;;;10352570;28;20050;-55
2024/02/21 05:34:41;;;;;;;1.52;0.95;;;21.40;45.70;;;;;;10356405;28;20046;-58
2024/02/21 05:39:43;;;;;;;1.35;1.00;;;21.40;45.80;;;;;;10361547;28;20422;-55
2024/02/21 05:44:46;;;;;;;1.08;0.80;;;21.40;45.80;;;;;;10360567;28;20068;-57
2024/02/21 05:49:48;;;;;;;0.95;0.85;;;21.40;45.70;;;;;;10355334;28;20060;-53
2024/02/21 05:54:50;;;;;;;0.88;0.80;;;21.40;45.80;;;;;;10350849;28;20516;-55
2024/02/21 05:59:53;;;;;;;0.82;0.73;;;21.50;45.80;;;;;;10348568;28;20053;-59
2024/02/21 06:04:55;;;;;;;0.77;0.70;;;21.50;45.70;;;;;;10346862;28;20656;-59
2024/02/21 06:09:56;;;;;;;0.70;0.70;;;21.60;45.80;;;;;;10358259;28;20519;-59
2024/02/21 06:14:59;;;;;;;0.70;0.70;;;21.70;45.70;;;;;;10361782;28;20415;-58
2024/02/21 06:20:01;;;;;;;1.30;0.77;;;21.70;45.40;;;;;;10357595;28;20407;-57
2024/02/21 06:25:03;;;;;;;0.90;0.80;;;21.80;45.40;;;;;;10354882;28;20064;-59
2024/02/21 06:30:07;;;;;;;0.80;0.80;;;21.90;45.00;;;;;;10362916;28;20049;-59
2024/02/21 06:35:09;;;;;;;0.70;0.70;;;21.80;45.20;;;;;;10358153;28;20073;-59
2024/02/21 06:40:11;;;;;;;0.57;0.57;;;21.70;45.30;;;;;;10355877;28;20145;-59
2024/02/21 06:45:14;;;;;;;0.98;0.80;;;21.60;45.50;;;;;;10353716;28;20081;-56
2024/02/21 06:50:16;;;;;;;1.52;0.82;;;21.70;45.50;;;;;;10355758;28;20416;-56
2024/02/21 06:55:17;;;;;;;0.80;0.68;;;21.60;45.60;;;;;;10359153;28;20045;-59
2024/02/21 07:00:21;;;;;;;1.15;0.60;;;21.70;45.70;;;;;;10356854;28;20045;-59
2024/02/21 07:05:23;;;;;;;1.02;0.80;;;21.70;45.50;;;;;;10355090;28;20049;-59
2024/02/21 07:10:24;;;;;;;0.80;0.80;;;21.60;45.60;;;;;;10348095;28;20656;-59
2024/02/21 07:15:28;;;;;;;0.80;0.63;;;21.60;45.70;;;;;;10343445;28;20598;-58
2024/02/21 07:20:30;;;;;;;0.98;0.68;;;21.60;45.70;;;;;;10339060;28;20046;-57
2024/02/21 07:25:31;;;;;;;0.73;0.73;;;21.60;45.70;;;;;;10350177;28;20077;-59
2024/02/21 07:30:34;;;;;;;0.85;0.70;;;21.70;45.60;;;;;;10348936;28;20046;-58
2024/02/21 07:35:37;;;;;;;0.80;0.70;;;21.70;45.60;;;;;;10355387;28;20046;-58
2024/02/21 07:40:39;;;;;;;0.70;0.60;;;21.60;45.80;;;;;;10354049;28;20467;-57
2024/02/21 07:45:42;;;;;;;0.82;0.70;;;21.60;45.80;;;;;;10354330;28;20054;-57
2024/02/21 07:50:43;;;;;;;0.77;0.68;;;21.60;45.70;;;;;;10355367;28;20050;-58
2024/02/21 07:55:45;;;;;;;0.60;0.60;;;21.50;45.90;;;;;;10361182;28;20049;-58
2024/02/21 08:00:48;;;;;;;0.55;0.50;;;21.50;46.00;;;;;;10360830;28;20053;-59
2024/02/21 08:05:49;;;;;;;0.85;0.60;;;21.40;46.30;;;;;;10367048;28;20863;-58
2024/02/21 08:10:51;;;;;;;0.95;0.68;;;21.40;46.10;;;;;;10364940;28;20049;-58
2024/02/21 08:15:54;;;;;;;0.73;0.52;;;21.40;46.10;;;;;;10365357;28;20551;-58
2024/02/21 08:20:56;;;;;;;0.93;0.70;;;21.50;45.80;;;;;;10358426;28;20506;-58
2024/02/21 08:25:57;;;;;;;0.50;0.50;;;21.40;46.00;;;;;;10352903;28;20137;-59
2024/02/21 08:31:00;;;;;;;1.13;0.73;;;21.30;46.10;;;;;;10350337;28;20053;-55
2024/02/21 08:36:03;;;;;;;1.00;0.60;;;21.30;46.00;;;;;;10351421;28;20068;-59
2024/02/21 08:41:06;;;;;;;1.00;0.70;;;21.30;46.20;;;;;;10355039;28;20049;-59
2024/02/21 08:46:09;;;;;;;0.70;0.70;;;21.40;46.10;;;;;;10356699;28;20044;-59
2024/02/21 08:51:10;;;;;;;0.70;0.60;;;21.40;46.00;;;;;;10362266;28;20054;-58
2024/02/21 08:56:12;;;;;;;0.88;0.60;;;21.40;46.30;;;;;;10361531;28;20038;-57
2024/02/21 09:01:15;;;;;;;0.45;0.45;;;21.40;46.10;;;;;;10364999;28;20042;-56
2024/02/21 09:06:16;;;;;;;0.65;0.57;;;21.30;46.40;;;;;;10356373;28;20045;-60
2024/02/21 09:11:18;;;;;;;1.00;0.60;;;21.40;46.40;;;;;;10352795;28;20048;-59
2024/02/21 09:16:21;;;;;;;0.43;0.43;;;21.50;46.20;;;;;;10355574;28;20049;-59
2024/02/21 09:21:22;;;;;;;0.60;0.35;;;21.50;46.20;;;;;;10361950;28;20041;-57
2024/02/21 09:26:24;;;;;;;0.60;0.50;;;21.40;46.30;;;;;;10360873;28;20041;-60
2024/02/21 09:31:27;;;;;;;0.60;0.50;;;21.50;46.20;;;;;;10357598;28;20042;-59
2024/02/21 09:36:29;;;;;;;0.50;0.50;;;21.50;46.20;;;;;;10354357;28;20050;-59
2024/02/21 09:41:30;;;;;;;0.50;0.50;;;21.50;46.20;;;;;;10354022;28;20053;-58
2024/02/21 09:46:40;;;;;;;0.82;0.68;;;21.40;46.40;;;;;;10349938;28;20078;-58
2024/02/21 09:51:42;;;;;;;0.75;0.40;;;21.40;46.40;;;;;;10351248;28;20049;-59
2024/02/21 09:56:45;;;;;;;0.50;0.50;;;21.20;46.80;;;;;;10349997;28;20054;-59
2024/02/21 10:01:48;;;;;;;0.80;0.65;;;21.10;46.90;;;;;;10349951;28;20071;-60
2024/02/21 10:06:50;;;;;;;0.60;0.40;;;21.00;47.00;;;;;;10358006;28;20140;-59
2024/02/21 10:11:51;;;;;;;0.75;0.50;;;21.20;46.80;;;;;;10362442;28;20640;-59
2024/02/21 10:16:59;;;;;;;0.45;0.35;;;21.10;46.80;;;;;;10355011;28;20502;-60
2024/02/21 10:22:04;;;;;;;0.55;0.50;;;21.10;46.80;;;;;;10354174;28;20038;-59
2024/02/21 10:27:08;;;;;;;0.65;0.40;;;21.20;46.70;;;;;;10349722;28;20053;-60
2024/02/21 10:32:11;;;;;;;1.15;0.60;;;21.20;46.60;;;;;;10353560;28;20074;-59
2024/02/21 10:37:13;;;;;;;0.52;0.50;;;21.20;46.70;;;;;;10354675;28;20080;-59
2024/02/21 10:42:17;;;;;;;1.00;0.50;;;21.20;46.90;;;;;;10357787;28;20058;-59
2024/02/21 10:47:21;;;;;;;0.85;0.43;;;21.30;46.60;;;;;;10357455;28;20050;-58
2024/02/21 10:52:26;;;;;;;0.80;0.55;;;21.20;46.60;;;;;;10351853;28;20459;-60
2024/02/21 10:57:28;;;;;;;0.63;0.55;;;21.20;46.70;;;;;;10350103;28;20050;-59
2024/02/21 11:02:31;;;;;;;0.50;0.40;;;21.30;46.70;;;;;;10348956;28;20061;-58
2024/02/21 11:07:33;;;;;;;0.50;0.50;;;21.20;46.70;;;;;;10355696;28;20500;-58
2024/02/21 11:12:35;;;;;;;1.23;0.80;;;21.20;46.80;;;;;;10352536;28;20048;-59
2024/02/21 11:17:38;;;;;;;0.68;0.55;;;21.30;46.50;;;;;;10356994;28;20052;-59
2024/02/21 11:22:42;;;;;;;0.60;0.60;;;21.30;46.60;;;;;;10359661;28;20057;-58
2024/02/21 11:27:46;;;;;;;0.50;0.50;;;21.30;46.60;;;;;;10361233;28;20045;-60
2024/02/21 11:32:49;;;;;;;0.60;0.60;;;21.30;46.70;;;;;;10362661;28;20048;-58
2024/02/21 11:37:51;;;;;;;0.70;0.50;;;21.30;46.70;;;;;;10361748;28;20049;-58
2024/02/21 11:42:52;;;;;;;0.60;0.60;;;21.30;46.60;;;;;;10361404;28;20086;-59
2024/02/21 11:47:55;;;;;;;0.60;0.60;;;21.10;46.80;;;;;;10358944;28;20046;-59
2024/02/21 11:52:57;;;;;;;0.55;0.50;;;21.10;46.90;;;;;;10364341;28;20060;-59
2024/02/21 11:57:58;;;;;;;0.70;0.50;;;21.10;46.80;;;;;;10362793;28;20058;-56
2024/02/21 12:03:01;;;;;;;0.57;0.57;;;21.00;47.00;;;;;;10361025;28;20068;-60
2024/02/21 12:08:04;;;;;;;0.60;0.60;;;21.10;46.70;;;;;;10356805;28;20046;-59
2024/02/21 12:13:07;;;;;;;0.60;0.60;;;21.20;46.60;;;;;;10354557;28;20046;-60
2024/02/21 12:18:10;;;;;;;1.58;0.70;;;21.10;46.80;;;;;;10357565;28;20050;-59
2024/02/21 12:23:12;;;;;;;0.50;0.50;;;21.00;46.80;;;;;;10359786;28;20424;-59
2024/02/21 12:28:14;;;;;;;0.50;0.50;;;21.00;47.00;;;;;;10363188;28;20415;-59
2024/02/21 12:33:17;;;;;;;0.60;0.50;;;21.00;47.00;;;;;;10361653;28;20076;-60
2024/02/21 12:38:20;;;;;;;0.68;0.55;;;21.20;46.70;;;;;;10352920;28;20067;-58
2024/02/21 12:43:22;;;;;;;0.75;0.60;;;21.10;46.90;;;;;;10361388;28;20049;-58
2024/02/21 12:48:25;;;;;;;0.60;0.50;;;21.10;46.80;;;;;;10361430;28;20053;-59
2024/02/21 12:53:26;;;;;;;0.70;0.43;;;21.00;47.00;;;;;;10359866;28;20389;-57
2024/02/21 12:58:31;;;;;;;0.50;0.50;;;21.10;46.80;;;;;;10351631;28;20420;-58
2024/02/21 13:03:34;;;;;;;0.50;0.50;;;21.20;46.70;;;;;;10348827;28;20136;-60
2024/02/21 13:08:35;;;;;;;0.60;0.60;;;21.10;46.90;;;;;;10350407;28;20504;-60
2024/02/21 13:13:38;;;;;;;0.50;0.50;;;21.20;46.70;;;;;;10354605;28;20419;-58
2024/02/21 13:18:42;;;;;;;0.73;0.55;;;21.10;46.70;;;;;;10354608;28;20132;-60
2024/02/21 13:23:44;;;;;;;0.52;0.52;;;21.20;46.60;;;;;;10356199;28;20504;-59
2024/02/21 13:28:47;;;;;;;0.40;0.40;;;21.20;46.50;;;;;;10356896;28;20404;-58
2024/02/21 13:33:50;;;;;;;0.40;0.40;;;21.20;46.50;;;;;;10353576;28;20054;-59
2024/02/21 13:38:54;;;;;;;0.60;0.50;;;21.10;46.70;;;;;;10352896;28;20575;-60
2024/02/21 13:43:56;;;;;;;0.40;0.40;;;21.10;46.80;;;;;;10345936;28;20050;-59
2024/02/21 13:49:05;;;;;;;0.77;0.50;;;21.30;46.50;;;;;;10355762;28;20058;-60
2024/02/21 13:54:09;;;;;;;0.30;0.30;;;21.50;45.90;;;;;;10358799;28;20050;-59
2024/02/21 13:59:10;;;;;;;0.50;0.50;;;21.60;45.60;;;;;;10357480;28;20108;-58
2024/02/21 14:04:13;;;;;;;0.50;0.50;;;21.90;45.10;;;;;;10352844;28;20057;-60
2024/02/21 14:09:15;;;;;;;0.40;0.40;;;21.90;45.10;;;;;;10348462;28;21274;-60
2024/02/21 14:14:16;;;;;;;0.40;0.40;;;21.80;45.30;;;;;;10347841;28;20511;-58
2024/02/21 14:19:19;;;;;;;0.40;0.40;;;21.70;45.50;;;;;;10341137;28;20042;-60
2024/02/21 14:24:21;;;;;;;0.40;0.40;;;21.70;45.70;;;;;;10344576;28;20129;-60
2024/02/21 14:29:23;;;;;;;0.77;0.40;;;21.80;45.30;;;;;;10348213;28;20451;-59
2024/02/21 14:34:26;;;;;;;0.52;0.40;;;22.00;45.10;;;;;;10350249;28;20050;-59
2024/02/21 14:39:28;;;;;;;0.45;0.45;;;22.10;44.90;;;;;;10348732;28;20080;-59
2024/02/21 14:44:29;;;;;;;0.50;0.50;;;22.10;44.80;;;;;;10344788;28;20056;-59
2024/02/21 14:49:32;;;;;;;0.75;0.40;;;22.10;44.80;;;;;;10349836;28;20585;-58
2024/02/21 14:54:34;;;;;;;0.38;0.38;;;22.10;45.00;;;;;;10351146;28;20048;-59
2024/02/21 14:59:35;;;;;;;0.40;0.40;;;22.10;44.90;;;;;;10345853;28;20042;-59
2024/02/21 15:04:38;;;;;;;0.40;0.40;;;22.10;45.10;;;;;;10361390;28;20053;-58
2024/02/21 15:09:40;;;;;;;0.45;0.45;;;22.10;45.10;;;;;;10363335;28;20046;-58
2024/02/21 15:14:43;;;;;;;0.38;0.38;;;22.10;45.10;;;;;;10361122;28;20052;-59
2024/02/21 15:19:47;;;;;;;0.40;0.40;;;22.20;45.20;;;;;;10362129;28;20046;-60
2024/02/21 15:24:49;;;;;;;0.45;0.40;;;22.20;45.10;;;;;;10360165;28;20100;-59
2024/02/21 15:29:51;;;;;;;0.38;0.38;;;22.20;45.30;;;;;;10356887;28;20504;-58
2024/02/21 15:34:54;;;;;;;0.43;0.43;;;22.30;45.10;;;;;;10353102;28;20440;-57
2024/02/21 15:39:55;;;;;;;0.40;0.40;;;22.20;45.30;;;;;;10358596;28;20046;-59
2024/02/21 15:44:58;;;;;;;0.50;0.40;;;22.30;45.10;;;;;;10359048;28;20571;-60
2024/02/21 15:50:01;;;;;;;0.38;0.38;;;22.30;45.20;;;;;;10359954;28;20050;-60
2024/02/21 15:55:03;;;;;;;0.45;0.45;;;22.40;45.10;;;;;;10359726;28;20054;-58
2024/02/21 16:00:05;;;;;;;0.40;0.40;;;22.20;45.20;;;;;;10355010;28;20049;-60
2024/02/21 16:05:09;;;;;;;0.50;0.50;;;22.30;45.20;;;;;;10358176;28;20052;-59
2024/02/21 16:10:11;;;;;;;0.30;0.30;;;22.40;45.10;;;;;;10361050;28;20048;-56
2024/02/21 16:15:13;;;;;;;0.43;0.40;;;22.40;45.10;;;;;;10365494;28;20137;-59
2024/02/21 16:20:16;;;;;;;0.38;0.38;;;22.40;45.20;;;;;;10365650;28;20081;-59
2024/02/21 16:25:18;;;;;;;0.40;0.40;;;22.40;45.10;;;;;;10362030;28;20457;-58
2024/02/21 16:30:23;;;;;;;0.55;0.40;;;22.40;45.10;;;;;;10370369;28;20046;-56
2024/02/21 16:35:27;;;;;;;0.70;0.40;;;22.50;45.10;;;;;;10356112;28;20045;-56
2024/02/21 16:40:29;;;;;;;0.47;0.30;;;22.40;45.10;;;;;;10355951;28;20054;-55
2024/02/21 16:45:30;;;;;;;0.35;0.35;;;22.40;45.20;;;;;;10356207;28;20045;-53
2024/02/21 16:50:33;;;;;;;0.50;0.50;;;22.50;45.00;;;;;;10362540;28;20060;-54
2024/02/21 16:55:35;;;;;;;0.40;0.40;;;22.50;45.10;;;;;;10358557;28;20048;-53
2024/02/21 17:00:38;;;;;;;0.50;0.50;;;22.50;45.10;;;;;;10352578;28;20053;-56
2024/02/21 17:05:44;;;;;;;0.32;0.32;;;22.50;45.10;;;;;;10357314;28;20066;-56
2024/02/21 17:10:46;;;;;;;0.40;0.40;;;22.50;45.10;;;;;;10353500;28;20554;-57
2024/02/21 17:15:49;;;;;;;0.40;0.40;;;22.50;45.20;;;;;;10357504;28;20480;-57
2024/02/21 17:20:52;;;;;;;0.80;0.50;;;22.50;45.00;;;;;;10359735;28;20054;-60
2024/02/21 17:25:54;;;;;;;0.40;0.40;;;22.60;45.10;;;;;;10358586;28;20041;-55
2024/02/21 17:30:56;;;;;;;0.40;0.40;;;22.60;45.00;;;;;;10359633;28;20050;-62
2024/02/21 17:35:58;;;;;;;0.60;0.50;;;22.60;45.00;;;;;;10355788;28;20042;-58
2024/02/21 17:41:00;;;;;;;0.40;0.40;;;22.60;45.20;;;;;;10352829;28;20050;-55
2024/02/21 17:46:02;;;;;;;0.50;0.38;;;22.70;45.10;;;;;;10357573;28;20042;-53
2024/02/21 17:51:05;;;;;;;0.30;0.30;;;22.70;45.00;;;;;;10352122;28;20114;-53
2024/02/21 17:56:07;;;;;;;0.45;0.45;;;22.70;45.00;;;;;;10357127;28;20042;-59
2024/02/21 18:01:09;;;;;;;0.35;0.35;;;22.70;44.90;;;;;;10362962;28;20145;-58
2024/02/21 18:06:12;;;;;;;0.93;0.60;;;22.80;44.80;;;;;;10358034;28;20047;-57
2024/02/21 18:11:14;;;;;;;0.30;0.30;;;22.80;44.70;;;;;;10351653;28;20488;-54
2024/02/21 18:16:16;;;;;;;0.93;0.52;;;22.70;44.90;;;;;;10348418;28;20042;-56
2024/02/21 18:21:19;;;;;;;0.40;0.40;;;22.70;45.00;;;;;;10350560;28;20554;-59
2024/02/21 18:26:20;;;;;;;0.52;0.40;;;22.70;45.10;;;;;;10359346;28;20038;-59
2024/02/21 18:31:22;;;;;;;0.50;0.50;;;22.80;45.00;;;;;;10358491;28;20056;-53
2024/02/21 18:36:25;;;;;;;0.40;0.40;;;22.80;45.10;;;;;;10358484;28;20050;-61
2024/02/21 18:41:35;;;;;;;0.40;0.40;;;22.90;45.00;;;;;;10355915;28;20052;-59
2024/02/21 18:46:37;;;;;;;0.53;0.40;;;22.80;45.10;;;;;;10352138;28;20074;-54
2024/02/21 18:51:40;;;;;;;0.40;0.40;;;22.70;45.20;;;;;;10350124;28;20046;-53
2024/02/21 18:56:45;;;;;;;0.63;0.40;;;22.70;45.10;;;;;;10344857;28;20161;-55
2024/02/21 19:01:47;;;;;;;0.40;0.40;;;22.80;45.10;;;;;;10353313;28;20053;-57
2024/02/21 19:06:51;;;;;;;0.40;0.40;;;22.90;44.80;;;;;;10362032;28;20049;-59
2024/02/21 19:11:53;;;;;;;0.45;0.45;;;22.80;44.90;;;;;;10358859;28;20049;-52
2024/02/21 19:16:55;;;;;;;0.47;0.40;;;23.00;44.60;;;;;;10356771;28;20054;-54
2024/02/21 19:21:58;;;;;;;0.65;0.40;;;23.20;44.20;;;;;;10352859;28;20474;-59
2024/02/21 19:27:01;;;;;;;0.47;0.40;;;23.20;44.40;;;;;;10353808;28;20407;-59
2024/02/21 19:32:03;;;;;;;0.50;0.50;;;23.00;44.50;;;;;;10351940;28;20056;-59
2024/02/21 19:37:06;;;;;;;0.60;0.60;;;22.90;44.70;;;;;;10351016;28;20045;-59
2024/02/21 19:42:08;;;;;;;0.52;0.50;;;22.90;44.80;;;;;;10355450;28;20054;-57
2024/02/21 19:47:10;;;;;;;0.45;0.45;;;22.70;45.00;;;;;;10370397;28;20133;-55
2024/02/21 19:52:16;;;;;;;0.98;0.57;;;22.70;45.20;;;;;;10367472;28;20049;-56
2024/02/21 19:57:19;;;;;;;0.40;0.40;;;22.60;45.30;;;;;;10364452;28;20041;-53
2024/02/21 20:02:20;;;;;;;0.50;0.50;;;22.50;45.30;;;;;;10355131;28;20507;-57
2024/02/21 20:07:23;;;;;;;0.52;0.50;;;22.40;45.50;;;;;;10356937;28;20543;-55
2024/02/21 20:12:32;;;;;;;0.55;0.50;;;22.40;45.60;;;;;;10353403;28;20124;-58
2024/02/21 20:17:34;;;;;;;0.50;0.50;;;22.40;45.40;;;;;;10364741;28;20068;-58
2024/02/21 20:22:37;;;;;;;0.90;0.60;;;22.60;45.10;;;;;;10366645;28;20046;-58
2024/02/21 20:27:38;;;;;;;0.60;0.60;;;22.60;45.10;;;;;;10361876;28;20050;-58
2024/02/21 20:32:50;;;;;;;0.60;0.50;;;22.50;45.10;;;;;;10357673;28;20109;-59
2024/02/21 20:37:54;;;;;;;0.50;0.50;;;22.50;44.80;;;;;;10359860;28;20054;-59
2024/02/21 20:42:55;;;;;;;0.60;0.60;;;22.50;45.60;;;;;;10352558;28;20053;-59
2024/02/21 20:47:57;;;;;;;0.60;0.60;;;22.40;45.10;;;;;;10351659;28;20046;-59
2024/02/21 20:53:01;;;;;;;0.40;0.40;;;22.40;45.00;;;;;;10358862;28;20038;-58
2024/02/21 20:58:03;;;;;;;0.50;0.50;;;22.40;45.00;;;;;;10354370;28;20046;-60
2024/02/21 21:03:05;;;;;;;0.82;0.50;;;22.40;45.00;;;;;;10362348;28;20042;-59
2024/02/21 21:08:08;;;;;;;0.63;0.50;;;22.30;45.20;;;;;;10363723;28;20611;-59
2024/02/21 21:13:10;;;;;;;0.40;0.40;;;22.30;45.00;;;;;;10359008;28;20056;-60
2024/02/21 21:18:11;;;;;;;0.77;0.45;;;22.20;45.10;;;;;;10353189;28;20493;-57
2024/02/21 21:23:14;;;;;;;0.47;0.45;;;22.30;45.00;;;;;;10352572;28;20048;-58
2024/02/21 21:28:16;;;;;;;0.70;0.50;;;22.30;44.80;;;;;;10351921;28;21358;-56
2024/02/21 21:33:18;;;;;;;1.15;0.60;;;22.30;44.80;;;;;;10355672;28;20365;-58
2024/02/21 21:38:21;;;;;;;0.60;0.50;;;22.40;44.30;;;;;;10360247;28;20038;-59
2024/02/21 21:43:23;;;;;;;0.63;0.47;;;22.40;44.20;;;;;;10358828;28;20412;-59
2024/02/21 21:48:25;;;;;;;0.85;0.60;;;22.40;44.30;;;;;;10350246;28;20053;-58
2024/02/21 21:53:28;;;;;;;0.50;0.50;;;22.20;44.60;;;;;;10351440;28;20052;-58
2024/02/21 21:58:30;;;;;;;1.27;0.57;;;22.20;44.70;;;;;;10353359;28;20129;-58
2024/02/21 22:03:31;;;;;;;0.57;0.55;;;22.10;44.80;;;;;;10353827;28;20145;-59
2024/02/21 22:08:35;;;;;;;0.50;0.50;;;22.10;44.50;;;;;;10355216;28;20041;-59
2024/02/21 22:13:36;;;;;;;0.82;0.60;;;22.20;44.40;;;;;;10354906;28;20137;-58
2024/02/21 22:18:38;;;;;;;0.70;0.57;;;22.30;44.20;;;;;;10357354;28;20056;-59
2024/02/21 22:23:44;;;;;;;0.65;0.60;;;22.30;44.00;;;;;;10356968;28;20129;-58
2024/02/21 22:28:47;;;;;;;0.52;0.52;;;22.30;44.00;;;;;;10356631;28;20058;-59
2024/02/21 22:33:49;;;;;;;0.60;0.60;;;22.30;44.00;;;;;;10352814;28;20178;-58
2024/02/21 22:38:52;;;;;;;0.55;0.50;;;22.20;43.90;;;;;;10352054;28;20420;-58
2024/02/21 22:43:53;;;;;;;0.82;0.68;;;22.30;43.80;;;;;;10351013;28;20121;-59
2024/02/21 22:48:55;;;;;;;0.50;0.50;;;22.20;43.90;;;;;;10348314;28;20058;-59
2024/02/21 22:53:59;;;;;;;0.50;0.50;;;22.10;44.10;;;;;;10353430;28;20054;-57
2024/02/21 22:59:00;;;;;;;0.50;0.50;;;22.20;44.10;;;;;;10353406;28;20073;-59
2024/02/21 23:04:04;;;;;;;0.50;0.50;;;22.00;44.10;;;;;;10353599;28;20034;-58
2024/02/21 23:09:08;;;;;;;0.70;0.50;;;21.90;44.40;;;;;;10347661;28;20500;-58
2024/02/21 23:14:09;;;;;;;0.60;0.60;;;21.80;44.40;;;;;;10355089;28;20042;-56
2024/02/21 23:19:11;;;;;;;0.45;0.40;;;21.80;44.30;;;;;;10362857;28;20133;-59
2024/02/21 23:24:14;;;;;;;0.52;0.50;;;21.90;44.30;;;;;;10360200;28;20046;-59
2024/02/21 23:29:15;;;;;;;0.50;0.50;;;21.90;44.20;;;;;;10363525;28;20052;-53
2024/02/21 23:34:18;;;;;;;0.60;0.55;;;21.90;44.40;;;;;;10361083;28;20050;-55
2024/02/21 23:39:20;;;;;;;0.50;0.50;;;21.70;44.80;;;;;;10361424;28;20045;-57
2024/02/21 23:44:22;;;;;;;0.63;0.40;;;21.70;44.60;;;;;;10362988;28;20052;-56
2024/02/21 23:49:25;;;;;;;0.60;0.52;;;21.50;44.90;;;;;;10360255;28;20132;-58
2024/02/21 23:54:28;;;;;;;0.57;0.50;;;21.50;44.90;;;;;;10360224;28;20042;-60
2024/02/21 23:59:30;;;;;;;0.40;0.40;;;21.60;44.90;;;;;;10353809;28;20525;-59
